createdAt,value
2024-02-29T00:01:29.289Z,1.98
2024-02-29T00:03:58.204Z,2.38
2024-02-29T00:06:27.044Z,2.95
2024-02-29T00:08:55.803Z,2.10
2024-02-29T00:11:25.990Z,3.05
2024-02-29T00:13:54.735Z,2.50
2024-02-29T00:16:23.482Z,2.92
2024-02-29T00:18:52.483Z,2.70
2024-02-29T00:21:21.242Z,3.00
2024-02-29T00:23:49.994Z,2.58
2024-02-29T00:26:18.686Z,2.55
2024-02-29T00:28:48.899Z,2.60
2024-02-29T00:31:17.713Z,1.95
2024-02-29T00:33:46.609Z,2.40
2024-02-29T00:36:15.910Z,3.05
2024-02-29T00:38:45.730Z,3.30
2024-02-29T00:41:15.156Z,3.13
2024-02-29T00:46:14.146Z,2.35
2024-02-29T00:48:43.042Z,2.40
2024-02-29T00:51:11.897Z,2.90
2024-02-29T00:53:40.698Z,2.97
2024-02-29T00:56:10.028Z,2.47
2024-02-29T00:58:38.829Z,3.10
2024-02-29T01:01:07.679Z,3.20
2024-02-29T01:03:37.903Z,2.45
2024-02-29T01:06:08.369Z,2.35
2024-02-29T01:08:37.469Z,4.10
2024-02-29T01:11:06.951Z,2.50
2024-02-29T01:13:36.403Z,2.55
2024-02-29T01:16:05.669Z,2.92
2024-02-29T01:18:34.677Z,2.83
2024-02-29T01:21:07.797Z,3.55
2024-02-29T01:23:36.559Z,2.97
2024-02-29T01:26:05.838Z,2.85
2024-02-29T01:28:34.801Z,2.80
2024-02-29T01:31:03.694Z,2.42
2024-02-29T01:33:32.859Z,2.95
2024-02-29T01:36:01.630Z,2.42
2024-02-29T01:38:31.937Z,2.78
2024-02-29T01:41:00.735Z,2.90
2024-02-29T01:43:30.727Z,3.17
2024-02-29T01:46:14.403Z,3.03
2024-02-29T01:48:44.260Z,3.60
2024-02-29T01:51:13.171Z,3.40
2024-02-29T01:53:43.904Z,2.45
2024-02-29T01:56:14.709Z,3.55
2024-02-29T01:58:43.956Z,3.03
2024-02-29T02:01:13.048Z,3.00
2024-02-29T02:03:41.089Z,3.65
2024-02-29T02:06:09.899Z,2.88
2024-02-29T02:08:38.778Z,3.38
2024-02-29T02:11:08.966Z,3.25
2024-02-29T02:13:37.776Z,3.63
2024-02-29T02:16:07.237Z,3.65
2024-02-29T02:18:37.333Z,2.95
2024-02-29T02:21:07.777Z,3.47
2024-02-29T02:23:36.747Z,3.10
2024-02-29T02:26:05.781Z,2.95
2024-02-29T02:28:34.702Z,2.50
2024-02-29T02:31:03.808Z,3.15
2024-02-29T02:33:32.659Z,3.13
2024-02-29T02:36:01.449Z,3.10
2024-02-29T02:38:31.886Z,3.42
2024-02-29T02:41:00.708Z,3.10
2024-02-29T02:43:29.570Z,2.97
2024-02-29T02:45:58.570Z,3.33
2024-02-29T02:48:27.352Z,3.22
2024-02-29T02:50:56.282Z,2.75
2024-02-29T02:53:25.164Z,3.42
2024-02-29T02:55:55.425Z,3.00
2024-02-29T02:58:24.198Z,3.97
2024-02-29T03:00:53.011Z,3.22
2024-02-29T03:03:21.913Z,2.85
2024-02-29T03:05:50.787Z,3.50
2024-02-29T03:08:21.904Z,3.15
2024-02-29T03:10:50.754Z,3.22
2024-02-29T03:13:21.130Z,2.67
2024-02-29T03:15:49.939Z,2.92
2024-02-29T03:18:18.944Z,2.90
2024-02-29T03:20:47.822Z,2.92
2024-02-29T03:23:16.607Z,3.15
2024-02-29T03:25:45.458Z,2.75
2024-02-29T03:28:14.376Z,3.20
2024-02-29T03:30:44.820Z,2.63
2024-02-29T03:33:13.647Z,2.47
2024-02-29T03:35:42.549Z,2.83
2024-02-29T03:38:12.785Z,3.13
2024-02-29T03:40:41.557Z,3.03
2024-02-29T03:43:10.390Z,3.63
2024-02-29T03:45:39.228Z,2.58
2024-02-29T03:48:09.939Z,2.58
2024-02-29T03:50:38.830Z,2.90
2024-02-29T03:53:07.628Z,2.63
2024-02-29T03:55:37.067Z,3.40
2024-02-29T03:58:06.354Z,3.30
2024-02-29T04:00:37.553Z,3.10
2024-02-29T04:03:06.836Z,2.83
2024-02-29T04:05:37.069Z,1.92
2024-02-29T04:08:06.278Z,2.35
2024-02-29T04:10:35.944Z,3.15
2024-02-29T04:13:04.964Z,2.53
2024-02-29T04:15:33.827Z,4.07
2024-02-29T04:18:03.261Z,3.25
2024-02-29T04:20:32.264Z,3.20
2024-02-29T04:23:02.777Z,2.60
2024-02-29T04:25:32.384Z,3.33
2024-02-29T04:28:01.312Z,3.65
2024-02-29T04:30:30.339Z,2.92
2024-02-29T04:33:02.164Z,3.08
2024-02-29T04:35:30.954Z,2.95
2024-02-29T04:37:59.831Z,3.15
2024-02-29T04:40:30.777Z,3.17
2024-02-29T04:42:59.729Z,3.30
2024-02-29T04:45:28.920Z,2.65
2024-02-29T04:47:57.985Z,3.03
2024-02-29T04:50:27.008Z,3.58
2024-02-29T04:52:55.866Z,3.40
2024-02-29T04:55:24.797Z,2.83
2024-02-29T05:00:43.581Z,3.00
2024-02-29T05:03:12.579Z,2.95
2024-02-29T05:05:41.572Z,2.33
2024-02-29T05:08:10.337Z,2.67
2024-02-29T05:10:39.281Z,2.58
2024-02-29T05:13:08.160Z,2.85
2024-02-29T05:15:40.385Z,3.47
2024-02-29T05:18:09.626Z,2.65
2024-02-29T05:20:38.730Z,3.38
2024-02-29T05:23:09.179Z,2.80
2024-02-29T05:25:38.885Z,2.92
2024-02-29T05:30:37.790Z,2.85
2024-02-29T05:33:06.903Z,2.50
2024-02-29T05:35:36.073Z,3.13
2024-02-29T05:38:05.014Z,3.80
2024-02-29T05:40:34.111Z,2.90
2024-02-29T05:43:04.956Z,2.67
2024-02-29T05:45:33.949Z,2.92
2024-02-29T05:48:05.515Z,3.30
2024-02-29T05:50:34.714Z,3.13
2024-02-29T05:53:03.621Z,3.25
2024-02-29T05:55:32.637Z,2.85
2024-02-29T05:58:01.539Z,3.50
2024-02-29T06:00:30.578Z,3.00
2024-02-29T06:02:59.583Z,2.90
2024-02-29T06:05:31.288Z,2.80
2024-02-29T06:08:00.117Z,3.13
2024-02-29T06:10:28.888Z,3.20
2024-02-29T06:12:57.858Z,2.75
2024-02-29T06:15:26.788Z,2.67
2024-02-29T06:17:57.075Z,2.67
2024-02-29T06:20:26.026Z,3.10
2024-02-29T06:22:57.122Z,3.67
2024-02-29T06:25:25.999Z,7.03
2024-02-29T06:27:54.907Z,2.90
2024-02-29T06:30:30.398Z,2.67
2024-02-29T06:32:59.206Z,2.60
2024-02-29T06:35:28.216Z,2.95
2024-02-29T06:37:58.477Z,2.45
2024-02-29T06:40:27.558Z,3.13
2024-02-29T06:42:56.419Z,3.33
2024-02-29T06:45:25.299Z,3.42
2024-02-29T06:47:54.937Z,2.90
2024-02-29T06:50:24.027Z,2.67
2024-02-29T06:52:54.972Z,3.60
2024-02-29T06:55:25.573Z,2.40
2024-02-29T06:57:54.413Z,3.30
2024-02-29T07:00:23.443Z,2.92
2024-02-29T07:02:52.237Z,3.40
2024-02-29T07:05:21.020Z,3.50
2024-02-29T07:07:54.124Z,3.40
2024-02-29T07:10:24.470Z,3.95
2024-02-29T07:12:53.413Z,3.30
2024-02-29T07:15:27.350Z,3.35
2024-02-29T07:17:56.394Z,3.17
2024-02-29T07:20:27.916Z,4.70
2024-02-29T07:22:58.907Z,3.35
2024-02-29T07:25:29.280Z,4.25
2024-02-29T07:27:58.809Z,2.92
2024-02-29T07:33:02.938Z,3.10
2024-02-29T07:35:33.385Z,2.72
2024-02-29T07:38:02.382Z,3.20
2024-02-29T07:40:32.726Z,2.92
2024-02-29T07:43:02.402Z,3.15
2024-02-29T07:45:31.397Z,3.95
2024-02-29T07:48:01.757Z,3.08
2024-02-29T07:50:30.709Z,3.80
2024-02-29T07:52:59.723Z,3.50
2024-02-29T07:55:28.882Z,4.15
2024-02-29T07:58:00.778Z,3.60
2024-02-29T08:00:29.832Z,3.30
2024-02-29T08:02:58.872Z,4.10
2024-02-29T08:05:27.698Z,4.18
2024-02-29T08:07:56.533Z,4.25
2024-02-29T08:10:25.501Z,4.18
2024-02-29T08:12:56.497Z,4.60
2024-02-29T08:15:26.883Z,4.43
2024-02-29T08:17:55.878Z,5.63
2024-02-29T08:20:26.749Z,6.05
2024-02-29T08:22:58.269Z,4.75
2024-02-29T08:25:32.065Z,5.30
2024-02-29T08:28:01.133Z,5.97
2024-02-29T08:30:31.469Z,5.43
2024-02-29T08:33:00.558Z,4.97
2024-02-29T08:35:30.704Z,3.28
2024-02-29T08:37:59.833Z,4.07
2024-02-29T08:40:28.889Z,4.47
2024-02-29T08:42:58.016Z,3.78
2024-02-29T08:45:27.048Z,3.65
2024-02-29T08:47:57.586Z,3.72
2024-02-29T08:50:26.550Z,3.60
2024-02-29T08:52:55.483Z,3.47
2024-02-29T08:55:24.470Z,3.17
2024-02-29T08:57:53.522Z,3.53
2024-02-29T09:00:22.637Z,3.13
2024-02-29T09:02:51.585Z,3.30
2024-02-29T09:05:22.024Z,3.80
2024-02-29T09:07:50.946Z,3.33
2024-02-29T09:10:19.889Z,3.55
2024-02-29T09:12:48.918Z,3.28
2024-02-29T09:15:18.340Z,3.55
2024-02-29T09:17:47.620Z,3.53
2024-02-29T09:20:16.611Z,5.30
2024-02-29T09:22:47.004Z,3.53
2024-02-29T09:25:15.846Z,3.63
2024-02-29T09:27:44.843Z,3.35
2024-02-29T09:30:17.468Z,3.22
2024-02-29T09:32:48.034Z,4.38
2024-02-29T09:35:17.226Z,3.10
2024-02-29T09:37:47.674Z,4.25
2024-02-29T09:40:19.547Z,4.05
2024-02-29T09:42:51.894Z,3.60
2024-02-29T09:45:25.592Z,3.25
2024-02-29T09:47:55.111Z,3.70
2024-02-29T09:50:23.981Z,4.05
2024-02-29T09:52:56.250Z,2.75
2024-02-29T09:55:25.542Z,4.25
2024-02-29T09:57:55.699Z,3.75
2024-02-29T10:00:25.073Z,3.60
2024-02-29T10:02:56.043Z,3.58
2024-02-29T10:05:25.235Z,3.38
2024-02-29T10:07:55.575Z,4.40
2024-02-29T10:13:43.763Z,4.63
2024-02-29T10:16:13.352Z,4.05
2024-02-29T10:18:42.353Z,3.65
2024-02-29T10:21:12.600Z,4.05
2024-02-29T10:23:43.729Z,3.70
2024-02-29T10:26:12.619Z,4.28
2024-02-29T10:28:41.572Z,4.00
2024-02-29T10:31:10.437Z,3.90
2024-02-29T10:33:39.999Z,5.45
2024-02-29T10:36:14.803Z,4.38
2024-02-29T10:38:45.290Z,4.05
2024-02-29T10:41:17.299Z,4.43
2024-02-29T10:43:47.815Z,4.50
2024-02-29T10:46:21.182Z,3.97
2024-02-29T10:48:56.553Z,4.13
2024-02-29T10:51:42.845Z,4.07
2024-02-29T10:54:20.022Z,4.68
2024-02-29T10:57:07.215Z,4.07
2024-02-29T10:59:38.876Z,4.40
2024-02-29T11:02:08.516Z,4.55
2024-02-29T11:04:40.496Z,3.78
2024-02-29T11:07:09.811Z,4.28
2024-02-29T11:09:40.509Z,4.70
2024-02-29T11:12:10.818Z,4.63
2024-02-29T11:14:46.506Z,3.92
2024-02-29T11:17:18.298Z,4.22
2024-02-29T11:22:21.079Z,4.63
2024-02-29T11:24:51.505Z,5.00
2024-02-29T11:27:20.440Z,3.85
2024-02-29T11:29:49.480Z,4.85
2024-02-29T11:32:36.683Z,3.67
2024-02-29T11:35:05.955Z,4.65
2024-02-29T11:37:37.301Z,4.50
2024-02-29T11:40:10.425Z,4.03
2024-02-29T11:42:39.983Z,3.85
2024-02-29T11:45:09.773Z,5.13
2024-02-29T11:47:40.654Z,5.68
2024-02-29T11:50:10.529Z,3.90
2024-02-29T11:52:39.817Z,4.30
2024-02-29T11:55:11.975Z,4.47
2024-02-29T11:57:41.058Z,5.18
2024-02-29T12:00:16.925Z,4.40
2024-02-29T12:02:47.018Z,4.55
2024-02-29T12:05:17.962Z,4.45
2024-02-29T12:07:48.361Z,4.75
2024-02-29T12:10:18.868Z,4.75
2024-02-29T12:12:47.922Z,5.00
2024-02-29T12:15:16.950Z,4.55
2024-02-29T12:17:45.820Z,4.85
2024-02-29T12:20:18.490Z,4.40
2024-02-29T12:22:50.294Z,4.07
2024-02-29T12:25:24.019Z,4.10
2024-02-29T12:27:52.941Z,5.50
2024-02-29T12:30:22.425Z,4.75
2024-02-29T12:32:52.565Z,4.47
2024-02-29T12:35:21.480Z,4.20
2024-02-29T12:37:50.304Z,4.30
2024-02-29T12:40:22.067Z,4.20
2024-02-29T12:42:50.955Z,4.32
2024-02-29T12:45:20.063Z,3.95
2024-02-29T12:47:49.114Z,4.50
2024-02-29T12:50:18.116Z,4.85
2024-02-29T12:52:49.313Z,4.78
2024-02-29T12:55:20.047Z,5.05
2024-02-29T12:57:49.172Z,4.22
2024-02-29T13:00:22.761Z,4.90
2024-02-29T13:02:52.250Z,5.10
2024-02-29T13:05:21.615Z,5.30
2024-02-29T13:10:22.149Z,5.47
2024-02-29T13:12:57.174Z,4.50
2024-02-29T13:15:30.917Z,4.43
2024-02-29T13:17:59.876Z,3.85
2024-02-29T13:20:30.274Z,4.38
2024-02-29T13:22:59.791Z,4.60
2024-02-29T13:25:30.419Z,4.65
2024-02-29T13:27:59.403Z,4.50
2024-02-29T13:30:28.240Z,3.92
2024-02-29T13:32:57.413Z,4.63
2024-02-29T13:35:27.597Z,4.78
2024-02-29T13:37:56.493Z,4.72
2024-02-29T13:40:25.924Z,4.40
2024-02-29T13:42:56.328Z,4.50
2024-02-29T13:45:25.114Z,3.97
2024-02-29T13:47:54.587Z,4.85
2024-02-29T13:50:23.779Z,4.30
2024-02-29T13:52:53.937Z,4.95
2024-02-29T13:55:22.944Z,4.07
2024-02-29T13:57:52.709Z,4.65
2024-02-29T14:00:33.263Z,3.75
2024-02-29T14:03:02.211Z,3.92
2024-02-29T14:05:31.110Z,4.07
2024-02-29T14:08:00.120Z,4.38
2024-02-29T14:10:32.521Z,4.10
2024-02-29T14:13:01.381Z,5.10
2024-02-29T14:15:34.232Z,4.80
2024-02-29T14:18:03.172Z,5.50
2024-02-29T14:20:32.022Z,4.38
2024-02-29T14:23:05.266Z,4.20
2024-02-29T14:25:34.393Z,5.20
2024-02-29T14:28:04.542Z,4.55
2024-02-29T14:30:34.877Z,4.82
2024-02-29T14:33:03.965Z,4.00
2024-02-29T14:35:34.732Z,4.32
2024-02-29T14:38:03.797Z,4.70
2024-02-29T14:40:32.741Z,4.22
2024-02-29T14:43:02.126Z,5.05
2024-02-29T14:45:31.004Z,5.90
2024-02-29T14:48:01.708Z,4.90
2024-02-29T14:50:30.604Z,5.25
2024-02-29T14:53:03.874Z,5.13
2024-02-29T14:55:32.727Z,4.82
2024-02-29T14:58:01.626Z,4.45
2024-02-29T15:00:30.557Z,4.15
2024-02-29T15:03:18.276Z,4.13
2024-02-29T15:05:47.292Z,4.72
2024-02-29T15:08:16.067Z,4.28
2024-02-29T15:10:44.956Z,4.20
2024-02-29T15:13:13.853Z,4.45
2024-02-29T15:15:42.871Z,4.90
2024-02-29T15:18:14.821Z,4.53
2024-02-29T15:21:02.078Z,4.78
2024-02-29T15:23:30.908Z,4.50
2024-02-29T15:26:02.609Z,4.07
2024-02-29T15:28:33.307Z,3.90
2024-02-29T15:31:02.249Z,4.97
2024-02-29T15:33:32.855Z,3.80
2024-02-29T15:36:01.768Z,4.45
2024-02-29T15:38:30.631Z,5.07
2024-02-29T15:41:00.017Z,4.53
2024-02-29T15:43:29.180Z,4.20
2024-02-29T15:45:58.482Z,4.25
2024-02-29T15:48:27.709Z,5.70
2024-02-29T15:50:57.932Z,5.38
2024-02-29T15:53:27.019Z,4.30
2024-02-29T15:55:55.906Z,5.85
2024-02-29T15:58:25.280Z,4.28
2024-02-29T16:00:54.214Z,4.80
2024-02-29T16:03:23.180Z,5.00
2024-02-29T16:05:53.147Z,5.78
2024-02-29T16:08:23.912Z,4.50
2024-02-29T16:10:52.999Z,4.68
2024-02-29T16:13:22.076Z,5.00
2024-02-29T16:15:51.291Z,5.32
2024-02-29T16:18:20.240Z,5.30
2024-02-29T16:20:52.540Z,4.88
2024-02-29T16:23:22.950Z,5.25
2024-02-29T16:25:52.983Z,5.88
2024-02-29T16:28:22.217Z,4.60
2024-02-29T16:30:51.161Z,5.47
2024-02-29T16:33:20.211Z,5.00
2024-02-29T16:35:49.107Z,5.45
2024-02-29T16:38:18.002Z,5.32
2024-02-29T16:40:48.979Z,5.68
2024-02-29T16:43:22.215Z,6.07
2024-02-29T16:45:51.291Z,5.60
2024-02-29T16:48:20.202Z,6.18
2024-02-29T16:50:49.026Z,4.90
2024-02-29T16:53:24.837Z,5.10
2024-02-29T16:55:55.382Z,5.78
2024-02-29T16:58:24.440Z,5.93
2024-02-29T17:00:54.192Z,6.35
2024-02-29T17:03:23.364Z,5.68
2024-02-29T17:05:52.349Z,5.18
2024-02-29T17:08:24.247Z,6.10
2024-02-29T17:11:09.989Z,6.25
2024-02-29T17:13:41.856Z,5.47
2024-02-29T17:16:14.996Z,5.53
2024-02-29T17:18:48.226Z,5.43
2024-02-29T17:21:17.853Z,5.82
2024-02-29T17:26:21.639Z,5.60
2024-02-29T17:28:52.882Z,6.28
2024-02-29T17:31:23.055Z,5.55
2024-02-29T17:33:52.606Z,5.15
2024-02-29T17:38:50.046Z,5.80
2024-02-29T17:41:20.313Z,4.88
2024-02-29T17:43:49.279Z,6.57
2024-02-29T17:46:21.214Z,6.63
2024-02-29T17:48:56.624Z,5.65
2024-02-29T17:51:25.824Z,5.05
2024-02-29T17:53:57.832Z,4.88
2024-02-29T17:56:29.381Z,5.75
2024-02-29T17:58:58.260Z,5.32
2024-02-29T18:01:29.282Z,5.30
2024-02-29T18:03:58.519Z,5.95
2024-02-29T18:06:27.628Z,5.60
2024-02-29T18:08:56.464Z,6.88
2024-02-29T18:11:25.348Z,6.05
2024-02-29T18:13:55.758Z,5.05
2024-02-29T18:16:32.024Z,5.43
2024-02-29T18:19:05.227Z,6.47
2024-02-29T18:21:36.938Z,5.53
2024-02-29T18:24:07.174Z,6.32
2024-02-29T18:26:36.318Z,6.13
2024-02-29T18:29:12.763Z,5.20
2024-02-29T18:31:41.671Z,5.45
2024-02-29T18:34:11.021Z,5.43
2024-02-29T18:36:45.195Z,4.88
2024-02-29T18:39:16.179Z,4.88
2024-02-29T18:41:48.204Z,5.53
2024-02-29T18:44:22.036Z,5.43
2024-02-29T18:46:51.474Z,5.20
2024-02-29T18:49:22.335Z,5.05
2024-02-29T18:51:52.794Z,5.25
2024-02-29T18:54:27.067Z,5.57
2024-02-29T18:56:58.815Z,5.90
2024-02-29T18:59:46.887Z,5.15
2024-02-29T19:02:17.934Z,5.07
2024-02-29T19:04:54.054Z,4.60
2024-02-29T19:07:27.842Z,5.05
2024-02-29T19:09:58.280Z,4.57
2024-02-29T19:12:34.471Z,5.68
2024-02-29T19:15:33.716Z,5.60
2024-02-29T19:20:31.362Z,5.25
2024-02-29T19:23:00.333Z,5.20
2024-02-29T19:25:29.322Z,5.43
2024-02-29T19:27:58.201Z,5.47
2024-02-29T19:30:28.523Z,4.47
2024-02-29T19:32:57.378Z,5.50
2024-02-29T19:35:26.591Z,4.88
2024-02-29T19:37:55.364Z,5.57
2024-02-29T19:40:24.308Z,4.47
2024-02-29T19:42:53.263Z,5.53
2024-02-29T19:45:22.179Z,5.50
2024-02-29T19:47:52.984Z,5.25
2024-02-29T19:50:22.695Z,4.70
2024-02-29T19:52:52.241Z,4.75
2024-02-29T19:57:51.042Z,6.20
2024-02-29T20:00:23.149Z,4.90
2024-02-29T20:02:53.566Z,5.53
2024-02-29T20:05:25.207Z,5.00
2024-02-29T20:07:54.119Z,5.00
2024-02-29T20:10:23.478Z,5.50
2024-02-29T20:12:52.946Z,5.45
2024-02-29T20:15:22.002Z,5.70
2024-02-29T20:17:51.285Z,6.60
2024-02-29T20:20:22.702Z,6.05
2024-02-29T20:22:51.645Z,5.28
2024-02-29T20:25:20.535Z,5.13
2024-02-29T20:27:53.640Z,6.32
2024-02-29T20:30:23.232Z,6.03
2024-02-29T20:32:52.618Z,4.93
2024-02-29T20:35:22.999Z,5.57
2024-02-29T20:37:51.882Z,5.32
2024-02-29T20:40:20.777Z,5.65
2024-02-29T20:42:49.671Z,6.05
2024-02-29T20:45:18.609Z,4.85
2024-02-29T20:47:48.282Z,5.30
2024-02-29T20:50:17.258Z,4.60
2024-02-29T20:52:48.221Z,6.18
2024-02-29T20:55:17.199Z,5.38
2024-02-29T20:57:47.612Z,5.55
2024-02-29T21:00:17.672Z,5.80
2024-02-29T21:02:46.486Z,6.10
2024-02-29T21:05:15.585Z,5.38
2024-02-29T21:07:45.209Z,5.88
2024-02-29T21:10:18.106Z,5.90
2024-02-29T21:12:47.759Z,6.70
2024-02-29T21:15:17.110Z,5.45
2024-02-29T21:17:46.631Z,5.60
2024-02-29T21:20:15.577Z,5.45
2024-02-29T21:22:45.136Z,6.20
2024-02-29T21:25:15.552Z,6.05
2024-02-29T21:27:44.733Z,5.43
2024-02-29T21:30:14.280Z,5.38
2024-02-29T21:32:43.198Z,4.90
2024-02-29T21:35:12.364Z,6.07
2024-02-29T21:37:41.107Z,4.80
2024-02-29T21:40:11.457Z,5.43
2024-02-29T21:42:41.781Z,5.40
2024-02-29T21:45:12.407Z,5.32
2024-02-29T21:47:41.608Z,6.40
2024-02-29T21:50:11.541Z,6.35
2024-02-29T21:52:40.665Z,6.15
2024-02-29T21:55:10.269Z,5.80
2024-02-29T22:00:10.812Z,6.10
2024-02-29T22:05:30.006Z,6.50
2024-02-29T22:10:27.165Z,6.97
2024-02-29T22:12:56.331Z,5.75
2024-02-29T22:15:27.842Z,5.97
2024-02-29T22:17:58.566Z,6.15
2024-02-29T22:20:27.574Z,5.80
2024-02-29T22:22:56.381Z,6.20
2024-02-29T22:25:25.592Z,5.80
2024-02-29T22:27:56.253Z,5.70
2024-02-29T22:30:26.441Z,5.68
2024-02-29T22:32:55.253Z,6.65
2024-02-29T22:35:24.043Z,5.70
2024-02-29T22:37:52.800Z,6.85
2024-02-29T22:40:21.594Z,5.68
2024-02-29T22:42:50.452Z,5.78
2024-02-29T22:45:19.251Z,6.70
2024-02-29T22:47:49.498Z,5.78
2024-02-29T22:50:18.337Z,6.22
2024-02-29T22:52:47.058Z,5.45
2024-02-29T22:55:15.887Z,5.40
2024-02-29T22:57:44.643Z,7.25
2024-02-29T23:00:26.654Z,6.85
2024-02-29T23:02:56.941Z,6.95
2024-02-29T23:05:25.807Z,6.65
2024-02-29T23:07:54.959Z,6.07
2024-02-29T23:10:24.046Z,6.72
2024-02-29T23:12:53.063Z,6.72
2024-02-29T23:15:22.355Z,7.28
2024-02-29T23:17:55.971Z,5.72
2024-02-29T23:20:26.269Z,6.13
2024-02-29T23:22:56.073Z,7.63
2024-02-29T23:25:25.762Z,6.28
2024-02-29T23:27:55.120Z,6.07
2024-02-29T23:30:24.087Z,6.88
2024-02-29T23:32:53.159Z,6.70
2024-02-29T23:35:22.181Z,8.07
2024-02-29T23:37:52.330Z,7.00
2024-02-29T23:40:21.172Z,7.13
2024-02-29T23:42:50.051Z,9.52
2024-02-29T23:45:18.878Z,7.43
2024-02-29T23:47:47.755Z,8.35
2024-02-29T23:50:16.541Z,7.22
2024-02-29T23:52:45.271Z,5.90
2024-02-29T23:55:15.666Z,5.95
2024-02-29T23:57:44.633Z,6.95
